createdAt,value
2018-01-22T00:01:10.981Z,31.95
2018-01-22T00:03:39.491Z,27.60
2018-01-22T00:06:07.676Z,29.83
2018-01-22T00:08:36.585Z,27.83
2018-01-22T00:11:04.723Z,29.17
2018-01-22T00:13:32.871Z,34.08
2018-01-22T00:16:00.994Z,30.15
2018-01-22T00:18:30.699Z,27.73
2018-01-22T00:20:59.576Z,24.00
2018-01-22T00:23:28.476Z,26.62
2018-01-22T00:25:56.636Z,30.27
2018-01-22T00:28:24.749Z,27.62
2018-01-22T00:30:52.871Z,27.60
2018-01-22T00:33:21.042Z,28.77
2018-01-22T00:35:49.160Z,28.17
2018-01-22T00:38:17.281Z,26.70
2018-01-22T00:40:45.412Z,27.52
2018-01-22T00:43:13.529Z,29.73
2018-01-22T00:45:42.436Z,35.17
2018-01-22T00:48:11.333Z,26.67
2018-01-22T00:50:39.470Z,24.23
2018-01-22T00:53:07.594Z,23.12
2018-01-22T00:55:35.740Z,27.52
2018-01-22T00:58:03.895Z,24.67
2018-01-22T01:00:32.045Z,28.02
2018-01-22T01:03:00.172Z,22.77
2018-01-22T01:05:28.317Z,22.58
2018-01-22T01:07:57.208Z,19.62
2018-01-22T01:10:26.118Z,25.90
2018-01-22T01:12:54.271Z,25.15
2018-01-22T01:15:22.397Z,17.73
2018-01-22T01:17:50.549Z,24.52
2018-01-22T01:20:18.666Z,22.60
2018-01-22T01:22:46.804Z,18.70
2018-01-22T01:25:14.942Z,25.27
2018-01-22T01:27:43.090Z,22.00
2018-01-22T01:30:11.252Z,26.20
2018-01-22T01:32:39.397Z,25.55
2018-01-22T01:35:07.528Z,25.15
2018-01-22T01:37:35.684Z,20.48
2018-01-22T01:40:03.829Z,23.48
2018-01-22T01:42:31.985Z,23.40
2018-01-22T01:45:00.112Z,27.42
2018-01-22T01:47:28.236Z,21.37
2018-01-22T01:49:56.436Z,24.50
2018-01-22T01:52:24.550Z,27.05
2018-01-22T01:54:52.707Z,25.67
2018-01-22T01:57:20.842Z,27.62
2018-01-22T01:59:48.984Z,28.62
2018-01-22T02:02:17.112Z,28.83
2018-01-22T02:04:45.277Z,29.63
2018-01-22T02:07:14.160Z,29.12
2018-01-22T02:09:43.065Z,35.13
2018-01-22T02:12:11.206Z,34.10
2018-01-22T02:14:39.680Z,29.55
2018-01-22T02:17:07.792Z,27.70
2018-01-22T02:19:50.844Z,26.02
2018-01-22T02:22:19.891Z,34.60
2018-01-22T02:24:48.818Z,33.53
2018-01-22T02:27:16.964Z,24.63
2018-01-22T02:29:45.093Z,27.08
2018-01-22T02:32:13.253Z,31.60
2018-01-22T02:34:41.407Z,31.75
2018-01-22T02:37:09.546Z,33.15
2018-01-22T02:39:37.675Z,29.73
2018-01-22T02:42:05.952Z,32.10
2018-01-22T02:44:34.093Z,31.90
2018-01-22T02:47:02.226Z,26.30
2018-01-22T02:49:30.356Z,29.60
2018-01-22T02:51:58.496Z,36.83
2018-01-22T02:54:26.627Z,29.77
2018-01-22T02:56:55.548Z,33.70
2018-01-22T02:59:23.678Z,39.00
2018-01-22T03:01:51.810Z,36.25
2018-01-22T03:04:19.940Z,35.50
2018-01-22T03:06:48.890Z,36.92
2018-01-22T03:09:17.003Z,37.55
2018-01-22T03:11:45.980Z,34.88
2018-01-22T03:14:14.137Z,42.45
2018-01-22T03:16:42.269Z,36.28
2018-01-22T03:19:10.418Z,38.70
2018-01-22T03:21:38.544Z,37.60
2018-01-22T03:24:06.684Z,36.20
2018-01-22T03:26:34.820Z,38.83
2018-01-22T03:29:03.740Z,36.80
2018-01-22T03:31:31.977Z,36.75
2018-01-22T03:34:00.121Z,34.17
2018-01-22T03:36:28.248Z,36.70
2018-01-22T03:38:56.389Z,37.65
2018-01-22T03:41:24.518Z,37.53
2018-01-22T03:43:52.652Z,34.40
2018-01-22T03:46:21.589Z,29.35
2018-01-22T03:48:49.725Z,36.88
2018-01-22T03:51:17.853Z,35.60
2018-01-22T03:53:45.977Z,33.50
2018-01-22T03:56:14.128Z,33.33
2018-01-22T03:58:43.040Z,32.65
2018-01-22T04:01:11.500Z,31.40
2018-01-22T04:03:40.382Z,26.05
2018-01-22T04:06:09.295Z,29.63
2018-01-22T04:08:37.421Z,29.48
2018-01-22T04:11:05.572Z,32.05
2018-01-22T04:13:33.690Z,32.22
2018-01-22T04:16:02.602Z,24.48
2018-01-22T04:18:30.836Z,28.98
2018-01-22T04:20:58.979Z,26.75
2018-01-22T04:23:27.508Z,27.35
2018-01-22T04:25:56.411Z,30.02
2018-01-22T04:28:24.544Z,27.55
2018-01-22T04:30:52.675Z,28.25
2018-01-22T04:33:20.822Z,27.70
2018-01-22T04:35:48.967Z,30.75
2018-01-22T04:38:17.867Z,31.25
2018-01-22T04:40:46.936Z,24.85
2018-01-22T04:43:15.081Z,28.12
2018-01-22T04:45:43.220Z,27.05
2018-01-22T04:48:11.364Z,35.40
2018-01-22T04:50:39.860Z,29.83
2018-01-22T04:53:08.872Z,24.17
2018-01-22T04:55:37.001Z,26.20
2018-01-22T04:58:05.165Z,25.95
2018-01-22T05:00:33.294Z,24.67
2018-01-22T05:03:01.444Z,25.02
2018-01-22T05:05:29.630Z,24.65
2018-01-22T05:07:57.701Z,27.13
2018-01-22T05:10:25.848Z,21.83
2018-01-22T05:12:54.752Z,24.85
2018-01-22T05:15:22.888Z,23.85
2018-01-22T05:17:51.016Z,20.30
2018-01-22T05:20:19.164Z,24.55
2018-01-22T05:22:47.308Z,21.95
2018-01-22T05:25:15.445Z,22.42
2018-01-22T05:27:43.576Z,21.73
2018-01-22T05:30:11.832Z,24.35
2018-01-22T05:32:40.736Z,27.58
2018-01-22T05:35:09.648Z,23.45
2018-01-22T05:37:37.783Z,21.27
2018-01-22T05:40:06.694Z,19.90
2018-01-22T05:42:34.818Z,20.67
2018-01-22T05:45:02.974Z,19.98
2018-01-22T05:47:31.109Z,20.00
2018-01-22T05:50:00.068Z,20.70
2018-01-22T05:52:28.210Z,23.25
2018-01-22T05:54:56.336Z,23.33
2018-01-22T05:57:25.240Z,23.42
2018-01-22T05:59:53.361Z,19.77
2018-01-22T06:02:21.545Z,22.58
2018-01-22T06:04:49.992Z,22.35
2018-01-22T06:07:18.201Z,18.55
2018-01-22T06:09:46.343Z,23.45
2018-01-22T06:12:14.568Z,20.45
2018-01-22T06:14:42.709Z,17.40
2018-01-22T06:17:10.844Z,19.58
2018-01-22T06:19:39.048Z,18.55
2018-01-22T06:22:07.555Z,21.73
2018-01-22T06:24:35.668Z,17.17
2018-01-22T06:27:03.844Z,18.27
2018-01-22T06:29:32.022Z,21.30
2018-01-22T06:32:00.153Z,18.95
2018-01-22T06:34:28.320Z,15.50
2018-01-22T06:36:56.464Z,18.40
2018-01-22T06:39:25.372Z,19.70
2018-01-22T06:41:54.276Z,18.08
2018-01-22T06:44:22.429Z,18.98
2018-01-22T06:46:50.583Z,20.40
2018-01-22T06:49:18.709Z,20.25
2018-01-22T06:51:46.862Z,20.27
2018-01-22T06:54:15.012Z,22.58
2018-01-22T06:56:43.929Z,23.85
2018-01-22T06:59:12.193Z,24.48
2018-01-22T07:01:40.443Z,18.27
2018-01-22T07:04:09.349Z,22.52
2018-01-22T07:06:38.249Z,20.15
2018-01-22T07:09:06.409Z,19.58
2018-01-22T07:11:34.545Z,18.12
2018-01-22T07:14:04.208Z,22.50
2018-01-22T07:16:32.381Z,22.45
2018-01-22T07:19:00.527Z,19.02
2018-01-22T07:21:28.646Z,17.95
2018-01-22T07:23:56.788Z,20.00
2018-01-22T07:26:24.912Z,19.80
2018-01-22T07:28:54.553Z,19.33
2018-01-22T07:31:22.688Z,17.08
2018-01-22T07:33:50.864Z,19.87
2018-01-22T07:36:18.989Z,20.15
2018-01-22T07:38:47.129Z,19.15
2018-01-22T07:41:16.030Z,18.37
2018-01-22T07:43:44.175Z,18.20
2018-01-22T07:46:12.688Z,20.37
2018-01-22T07:48:41.597Z,17.37
2018-01-22T07:51:09.712Z,19.25
2018-01-22T07:53:37.869Z,21.02
2018-01-22T07:56:06.000Z,17.60
2018-01-22T07:58:34.179Z,18.75
2018-01-22T08:01:02.270Z,18.20
2018-01-22T08:03:30.431Z,19.80
2018-01-22T08:05:58.564Z,21.15
2018-01-22T08:08:26.707Z,15.88
2018-01-22T08:10:54.905Z,19.48
2018-01-22T08:13:23.795Z,16.60
2018-01-22T08:15:52.708Z,17.45
2018-01-22T08:18:20.849Z,13.82
2018-01-22T08:20:49.757Z,16.87
2018-01-22T08:23:17.919Z,15.57
2018-01-22T08:25:46.815Z,21.30
2018-01-22T08:28:14.949Z,13.73
2018-01-22T08:30:43.092Z,14.27
2018-01-22T08:33:11.210Z,16.02
2018-01-22T08:35:40.110Z,17.42
2018-01-22T08:38:09.043Z,14.32
2018-01-22T08:40:37.177Z,16.50
2018-01-22T08:43:05.312Z,14.43
2018-01-22T08:45:33.452Z,13.68
2018-01-22T08:48:01.627Z,15.48
2018-01-22T08:50:29.763Z,16.92
2018-01-22T08:52:57.900Z,14.10
2018-01-22T08:55:26.051Z,17.42
2018-01-22T08:57:54.170Z,15.75
2018-01-22T09:00:23.084Z,14.85
2018-01-22T09:02:51.208Z,14.63
2018-01-22T09:05:19.688Z,16.12
2018-01-22T09:07:47.822Z,17.95
2018-01-22T09:10:15.955Z,16.35
2018-01-22T09:12:44.839Z,20.37
2018-01-22T09:15:13.754Z,17.83
2018-01-22T09:17:41.873Z,15.07
2018-01-22T09:20:09.988Z,15.55
2018-01-22T09:22:38.904Z,19.95
2018-01-22T09:25:07.016Z,14.82
2018-01-22T09:27:35.160Z,20.10
2018-01-22T09:30:03.277Z,15.13
2018-01-22T09:32:32.172Z,15.93
2018-01-22T09:35:01.057Z,18.95
2018-01-22T09:37:29.962Z,15.35
2018-01-22T09:39:58.084Z,14.85
2018-01-22T09:42:26.216Z,13.90
2018-01-22T09:44:54.348Z,16.58
2018-01-22T09:47:23.253Z,17.35
2018-01-22T09:49:52.134Z,12.07
2018-01-22T09:52:21.100Z,15.38
2018-01-22T09:54:49.195Z,20.17
2018-01-22T10:00:14.527Z,16.20
2018-01-22T10:02:42.702Z,14.27
2018-01-22T10:05:11.585Z,15.25
2018-01-22T10:07:40.497Z,19.33
2018-01-22T10:10:08.638Z,18.27
2018-01-22T10:12:37.543Z,14.20
2018-01-22T10:15:05.706Z,17.50
2018-01-22T10:17:34.609Z,12.35
2018-01-22T10:20:02.757Z,16.77
2018-01-22T10:22:30.881Z,19.08
2018-01-22T10:24:59.011Z,19.98
2018-01-22T10:27:27.901Z,13.73
2018-01-22T10:29:56.061Z,15.10
2018-01-22T10:32:24.964Z,17.62
2018-01-22T10:34:53.882Z,16.62
2018-01-22T10:37:22.024Z,12.45
2018-01-22T10:39:50.933Z,17.80
2018-01-22T10:42:19.065Z,15.95
2018-01-22T10:44:47.191Z,19.10
2018-01-22T10:47:15.334Z,19.45
2018-01-22T10:49:43.465Z,12.63
2018-01-22T10:52:11.621Z,16.62
2018-01-22T10:54:39.776Z,15.90
2018-01-22T10:57:07.916Z,16.62
2018-01-22T10:59:36.052Z,14.35
2018-01-22T11:02:04.177Z,18.08
2018-01-22T11:04:32.522Z,9.57
2018-01-22T11:07:00.698Z,10.85
2018-01-22T11:09:29.730Z,15.95
2018-01-22T11:11:57.879Z,12.93
2018-01-22T11:14:26.087Z,16.23
2018-01-22T11:16:54.261Z,15.25
2018-01-22T11:19:22.532Z,12.00
2018-01-22T11:21:50.760Z,13.30
2018-01-22T11:24:19.830Z,12.95
2018-01-22T11:26:48.329Z,18.55
2018-01-22T11:29:16.482Z,24.87
2018-01-22T11:31:44.842Z,27.92
2018-01-22T11:34:13.803Z,23.00
2018-01-22T11:36:41.933Z,15.15
2018-01-22T11:39:10.833Z,22.40
2018-01-22T11:41:38.955Z,14.82
2018-01-22T11:44:07.092Z,16.58
2018-01-22T11:46:35.221Z,17.90
2018-01-22T11:49:03.357Z,28.30
2018-01-22T11:51:31.485Z,17.60
2018-01-22T11:54:00.386Z,19.25
2018-01-22T11:56:28.528Z,22.77
2018-01-22T11:58:56.672Z,16.55
2018-01-22T12:01:24.797Z,15.95
2018-01-22T12:03:52.920Z,24.98
2018-01-22T12:06:21.076Z,20.92
2018-01-22T12:08:49.184Z,21.20
2018-01-22T12:11:17.338Z,14.77
2018-01-22T12:13:45.456Z,11.00
2018-01-22T12:16:13.597Z,13.93
2018-01-22T12:18:41.756Z,15.88
2018-01-22T12:21:09.896Z,13.18
2018-01-22T12:23:38.029Z,15.85
2018-01-22T12:26:06.936Z,13.05
2018-01-22T12:28:35.076Z,22.50
2018-01-22T12:31:04.045Z,15.00
2018-01-22T12:33:32.252Z,20.73
2018-01-22T12:36:01.203Z,12.63
2018-01-22T12:38:29.436Z,10.35
2018-01-22T12:40:57.573Z,11.48
2018-01-22T12:43:26.481Z,10.70
2018-01-22T12:45:54.678Z,12.90
2018-01-22T12:48:22.937Z,10.95
2018-01-22T12:50:51.186Z,20.55
2018-01-22T12:53:19.466Z,14.95
2018-01-22T12:55:47.868Z,10.15
2018-01-22T12:58:16.831Z,16.80
2018-01-22T13:00:45.814Z,9.35
2018-01-22T13:03:14.568Z,8.85
2018-01-22T13:05:42.793Z,8.82
2018-01-22T13:08:10.913Z,11.15
2018-01-22T13:10:40.178Z,14.68
2018-01-22T13:13:08.384Z,8.48
2018-01-22T13:15:36.516Z,9.15
2018-01-22T13:18:05.526Z,10.10
2018-01-22T13:20:33.734Z,11.73
2018-01-22T13:23:06.932Z,8.52
2018-01-22T13:25:39.119Z,10.63
2018-01-22T13:28:07.458Z,10.50
2018-01-22T13:30:35.702Z,13.20
2018-01-22T13:33:03.893Z,14.83
2018-01-22T13:35:32.199Z,11.40
2018-01-22T13:38:00.513Z,10.60
2018-01-22T13:40:34.969Z,10.17
2018-01-22T13:43:03.153Z,10.07
2018-01-22T13:45:32.060Z,7.27
2018-01-22T13:48:00.253Z,7.20
2018-01-22T13:50:29.205Z,6.43
2018-01-22T13:52:57.301Z,5.70
2018-01-22T13:55:25.446Z,8.00
2018-01-22T13:57:53.664Z,9.67
2018-01-22T14:00:22.033Z,8.80
2018-01-22T14:02:51.088Z,13.13
2018-01-22T14:05:20.245Z,8.77
2018-01-22T14:07:48.565Z,6.70
2018-01-22T14:10:17.631Z,8.53
2018-01-22T14:12:45.800Z,9.40
2018-01-22T14:15:14.446Z,10.63
2018-01-22T14:17:43.471Z,8.67
2018-01-22T14:20:11.716Z,9.67
2018-01-22T14:22:39.850Z,8.80
2018-01-22T14:25:07.993Z,8.50
2018-01-22T14:27:36.113Z,9.80
2018-01-22T14:30:05.009Z,10.40
2018-01-22T14:32:33.585Z,9.03
2018-01-22T14:35:01.688Z,10.93
2018-01-22T14:37:29.836Z,10.50
2018-01-22T14:39:57.993Z,11.88
2018-01-22T14:42:26.126Z,10.37
2018-01-22T14:44:54.256Z,12.82
2018-01-22T14:47:23.154Z,9.30
2018-01-22T14:49:51.281Z,12.90
2018-01-22T14:52:19.401Z,19.60
2018-01-22T14:54:47.542Z,18.20
2018-01-22T14:57:15.688Z,20.30
2018-01-22T14:59:43.820Z,14.13
2018-01-22T15:02:11.953Z,14.40
2018-01-22T15:04:40.093Z,14.10
2018-01-22T15:07:08.238Z,12.50
2018-01-22T15:09:36.374Z,9.00
2018-01-22T15:12:05.261Z,11.60
2018-01-22T15:14:34.233Z,22.30
2018-01-22T15:17:02.446Z,20.23
2018-01-22T15:19:31.871Z,9.90
2018-01-22T15:22:00.092Z,12.30
2018-01-22T15:24:28.540Z,14.03
2018-01-22T15:26:56.801Z,11.37
2018-01-22T15:29:25.798Z,11.67
2018-01-22T15:31:54.025Z,14.67
2018-01-22T15:34:22.234Z,37.10
2018-01-22T15:36:50.562Z,22.47
2018-01-22T15:39:18.669Z,23.50
2018-01-22T15:41:46.849Z,25.93
2018-01-22T15:44:14.980Z,41.37
2018-01-22T15:46:44.060Z,49.63
2018-01-22T15:49:12.254Z,27.67
2018-01-22T15:51:41.157Z,27.73
2018-01-22T15:54:09.326Z,28.15
2018-01-22T15:56:38.201Z,23.03
2018-01-22T15:59:07.130Z,28.70
2018-01-22T16:01:35.272Z,41.00
2018-01-22T16:04:03.907Z,39.73
2018-01-22T16:06:32.037Z,40.93
2018-01-22T16:09:00.184Z,24.63
2018-01-22T16:11:29.078Z,32.73
2018-01-22T16:13:57.988Z,22.50
2018-01-22T16:16:26.140Z,34.80
2018-01-22T16:18:55.039Z,67.70
2018-01-22T16:21:23.298Z,40.83
2018-01-22T16:23:53.061Z,30.77
2018-01-22T16:26:21.205Z,67.73
2018-01-22T16:28:50.261Z,31.55
2018-01-22T16:31:19.191Z,92.20
2018-01-22T16:33:47.318Z,43.83
2018-01-22T16:36:15.502Z,45.88
2018-01-22T16:38:43.809Z,57.03
2018-01-22T16:41:12.159Z,24.80
2018-01-22T16:43:41.053Z,30.67
2018-01-22T16:46:09.196Z,32.70
2018-01-22T16:48:37.333Z,29.73
2018-01-22T16:51:05.491Z,28.57
2018-01-22T16:53:33.604Z,34.23
2018-01-22T16:56:01.760Z,30.33
2018-01-22T16:58:30.668Z,31.30
2018-01-22T17:00:58.788Z,53.57
2018-01-22T17:03:26.948Z,45.43
2018-01-22T17:05:55.084Z,27.70
2018-01-22T17:08:23.228Z,32.27
2018-01-22T17:10:51.380Z,37.67
2018-01-22T17:13:19.584Z,43.20
2018-01-22T17:15:49.200Z,34.27
2018-01-22T17:18:17.670Z,28.60
2018-01-22T17:20:46.000Z,23.80
2018-01-22T17:23:14.889Z,28.90
2018-01-22T17:25:43.079Z,29.30
2018-01-22T17:28:11.202Z,22.30
2018-01-22T17:30:39.353Z,30.43
2018-01-22T17:33:07.481Z,32.27
2018-01-22T17:35:35.658Z,61.30
2018-01-22T17:38:03.781Z,34.63
2018-01-22T17:40:31.930Z,51.00
2018-01-22T17:43:00.053Z,46.53
2018-01-22T17:45:28.189Z,27.53
2018-01-22T17:47:56.327Z,28.38
2018-01-22T17:50:24.510Z,29.15
2018-01-22T17:52:52.620Z,28.63
2018-01-22T17:55:20.740Z,100.47
2018-01-22T17:57:48.945Z,47.13
2018-01-22T18:00:17.114Z,37.03
2018-01-22T18:02:46.072Z,57.60
2018-01-22T18:05:14.188Z,75.40
2018-01-22T18:07:42.337Z,156.90
2018-01-22T18:10:10.498Z,72.33
2018-01-22T18:12:38.625Z,66.27
2018-01-22T18:15:06.802Z,54.97
2018-01-22T18:17:35.790Z,88.10
2018-01-22T18:20:04.726Z,57.20
2018-01-22T18:22:32.955Z,113.40
2018-01-22T18:25:01.841Z,79.73
2018-01-22T18:27:30.944Z,49.10
2018-01-22T18:29:59.208Z,161.13
2018-01-22T18:32:27.353Z,89.03
2018-01-22T18:34:55.548Z,41.17
2018-01-22T18:37:24.598Z,77.90
2018-01-22T18:39:54.063Z,197.65
2018-01-22T18:42:22.355Z,178.02
2018-01-22T18:44:50.664Z,135.07
2018-01-22T18:47:18.884Z,126.72
2018-01-22T18:49:47.838Z,65.10
2018-01-22T18:52:16.958Z,44.75
2018-01-22T18:54:45.143Z,46.93
2018-01-22T18:57:14.193Z,37.50
2018-01-22T18:59:42.466Z,39.60
2018-01-22T19:02:10.650Z,34.13
2018-01-22T19:04:38.966Z,38.20
2018-01-22T19:07:07.148Z,32.73
2018-01-22T19:09:35.476Z,36.43
2018-01-22T19:12:03.845Z,41.10
2018-01-22T19:14:32.144Z,41.87
2018-01-22T19:17:00.562Z,39.00
2018-01-22T19:19:29.101Z,34.23
2018-01-22T19:21:58.001Z,36.83
2018-01-22T19:24:26.944Z,70.40
2018-01-22T19:26:55.088Z,43.50
2018-01-22T19:29:23.224Z,49.20
2018-01-22T19:31:52.192Z,44.80
2018-01-22T19:34:20.363Z,65.47
2018-01-22T19:36:48.497Z,58.93
2018-01-22T19:39:16.683Z,54.43
2018-01-22T19:41:44.963Z,45.80
2018-01-22T19:44:13.111Z,49.53
2018-01-22T19:46:41.277Z,57.67
2018-01-22T19:49:09.495Z,56.03
2018-01-22T19:51:37.644Z,61.37
2018-01-22T19:54:06.664Z,73.77
2018-01-22T19:56:35.591Z,72.00
2018-01-22T19:59:04.624Z,95.70
2018-01-22T20:01:32.833Z,90.97
2018-01-22T20:04:01.135Z,47.63
2018-01-22T20:06:29.394Z,92.93
2018-01-22T20:08:57.630Z,83.90
2018-01-22T20:11:25.904Z,89.37
2018-01-22T20:13:54.338Z,50.80
2018-01-22T20:16:23.315Z,86.40
2018-01-22T20:18:52.268Z,92.13
2018-01-22T20:21:20.552Z,51.00
2018-01-22T20:23:48.761Z,82.10
2018-01-22T20:26:17.948Z,46.90
2018-01-22T20:28:46.091Z,78.17
2018-01-22T20:31:14.816Z,106.70
2018-01-22T20:33:43.464Z,76.30
2018-01-22T20:36:11.585Z,52.57
2018-01-22T20:38:39.712Z,44.30
2018-01-22T20:41:07.845Z,55.47
2018-01-22T20:43:36.148Z,43.37
2018-01-22T20:46:04.352Z,58.00
2018-01-22T20:48:33.350Z,43.40
2018-01-22T20:51:02.347Z,38.77
2018-01-22T20:53:31.282Z,36.57
2018-01-22T20:55:59.541Z,44.47
2018-01-22T20:58:27.789Z,40.07
2018-01-22T21:00:55.942Z,46.73
2018-01-22T21:03:24.105Z,42.93
2018-01-22T21:05:52.378Z,39.30
2018-01-22T21:08:20.585Z,50.43
2018-01-22T21:10:48.809Z,38.93
2018-01-22T21:13:17.048Z,43.03
2018-01-22T21:15:45.207Z,39.73
2018-01-22T21:18:13.394Z,43.70
2018-01-22T21:20:41.646Z,50.80
2018-01-22T21:23:09.802Z,40.77
2018-01-22T21:25:39.126Z,50.63
2018-01-22T21:28:07.224Z,42.97
2018-01-22T21:30:35.356Z,39.77
2018-01-22T21:33:03.528Z,41.57
2018-01-22T21:35:32.416Z,47.30
2018-01-22T21:38:00.628Z,39.47
2018-01-22T21:40:28.796Z,51.87
2018-01-22T21:42:56.947Z,40.13
2018-01-22T21:45:25.085Z,37.57
2018-01-22T21:47:53.323Z,37.80
2018-01-22T21:50:21.662Z,45.87
2018-01-22T21:52:50.830Z,33.23
2018-01-22T21:55:19.024Z,33.30
2018-01-22T21:57:48.050Z,33.90
2018-01-22T22:00:16.247Z,34.40
2018-01-22T22:02:44.476Z,39.13
2018-01-22T22:05:13.438Z,40.00
2018-01-22T22:07:41.591Z,32.70
2018-01-22T22:10:09.790Z,33.90
2018-01-22T22:12:38.710Z,40.40
2018-01-22T22:15:06.900Z,33.73
2018-01-22T22:17:35.010Z,27.33
2018-01-22T22:20:03.933Z,28.23
2018-01-22T22:22:32.108Z,25.27
2018-01-22T22:25:00.241Z,29.00
2018-01-22T22:27:28.417Z,23.63
2018-01-22T22:29:56.597Z,50.97
2018-01-22T22:32:24.753Z,33.47
2018-01-22T22:34:52.894Z,20.13
2018-01-22T22:37:21.155Z,21.27
2018-01-22T22:39:49.381Z,22.43
2018-01-22T22:42:17.527Z,23.53
2018-01-22T22:44:45.671Z,25.67
2018-01-22T22:47:13.815Z,21.43
2018-01-22T22:49:42.972Z,22.90
2018-01-22T22:52:11.197Z,24.07
2018-01-22T22:54:39.452Z,21.17
2018-01-22T22:57:08.398Z,18.27
2018-01-22T22:59:36.530Z,24.97
2018-01-22T23:02:04.680Z,24.23
2018-01-22T23:04:33.573Z,22.93
2018-01-22T23:07:01.804Z,26.20
2018-01-22T23:09:30.109Z,22.47
2018-01-22T23:11:58.235Z,22.10
2018-01-22T23:14:26.379Z,21.83
2018-01-22T23:16:55.346Z,25.70
2018-01-22T23:19:24.317Z,20.67
2018-01-22T23:21:52.489Z,20.60
2018-01-22T23:24:20.633Z,21.47
2018-01-22T23:26:48.818Z,23.20
2018-01-22T23:29:16.969Z,18.17
2018-01-22T23:31:45.209Z,24.13
2018-01-22T23:34:14.189Z,18.93
2018-01-22T23:36:43.081Z,19.17
2018-01-22T23:39:11.985Z,20.23
2018-01-22T23:41:40.881Z,19.50
2018-01-22T23:44:09.049Z,23.63
2018-01-22T23:46:37.164Z,18.10
2018-01-22T23:49:05.392Z,17.50
2018-01-22T23:51:33.598Z,23.00
2018-01-22T23:54:01.766Z,20.40
2018-01-22T23:56:29.969Z,16.63
2018-01-22T23:58:58.101Z,18.60
